Time;durP1;ratioP1;P1;durP2;ratioP2;P2;SDS_P1;SDS_P2;PMS_P1;PMS_P2;Temp;Humidity;BMP_temperature;BMP_pressure;BME280_temperature;BME280_humidity;BME280_pressure;Samples;Min_cycle;Max_cycle;Signal;HPM_P1;HPM_P2
2023/10/10 00:01:02;;;;;;;18.45;6.32;;;15.10;63.20;;;;;;5087754;28;20032;-63
2023/10/10 00:03:31;;;;;;;19.30;5.78;;;15.10;63.40;;;;;;5086217;28;20111;-62
2023/10/10 00:05:58;;;;;;;13.82;5.90;;;15.10;63.40;;;;;;5093312;28;20061;-61
2023/10/10 00:08:36;;;;;;;20.27;6.40;;;15.10;63.50;;;;;;5083992;28;20539;-63
2023/10/10 00:11:16;;;;;;;16.25;5.45;;;15.10;63.60;;;;;;5087880;28;20024;-63
2023/10/10 00:13:43;;;;;;;12.52;5.47;;;15.10;63.60;;;;;;5083821;28;20024;-62
2023/10/10 00:16:25;;;;;;;22.52;6.35;;;15.10;63.60;;;;;;5085418;28;20031;-63
2023/10/10 00:18:55;;;;;;;22.33;6.38;;;15.10;64.10;;;;;;5086398;28;20385;-62
2023/10/10 00:21:24;;;;;;;20.30;6.10;;;15.10;63.60;;;;;;5088130;28;20040;-63
2023/10/10 00:23:50;;;;;;;17.45;5.95;;;15.10;63.80;;;;;;5087995;28;20067;-63
2023/10/10 00:26:21;;;;;;;23.65;5.88;;;15.10;63.80;;;;;;5095248;28;20032;-62
2023/10/10 00:28:54;;;;;;;20.58;5.13;;;15.10;64.00;;;;;;5089912;28;20071;-63
2023/10/10 00:31:22;;;;;;;21.05;5.40;;;15.10;63.90;;;;;;5090469;28;20470;-63
2023/10/10 00:33:50;;;;;;;21.95;5.53;;;15.10;63.80;;;;;;5093428;28;20020;-62
2023/10/10 00:36:30;;;;;;;15.93;4.70;;;15.10;63.90;;;;;;5088976;28;20031;-62
2023/10/10 00:41:51;;;;;;;14.60;5.05;;;15.10;63.80;;;;;;5092976;28;20050;-63
2023/10/10 00:44:18;;;;;;;22.92;5.50;;;15.10;63.70;;;;;;5086141;28;20065;-62
2023/10/10 00:46:55;;;;;;;15.35;5.32;;;15.00;63.60;;;;;;5010037;28;20077;-62
2023/10/10 00:49:24;;;;;;;17.27;5.60;;;15.00;64.10;;;;;;5081914;28;20031;-62
2023/10/10 00:51:54;;;;;;;18.17;5.35;;;15.00;63.60;;;;;;5085633;28;20051;-65
2023/10/10 00:54:26;;;;;;;12.23;5.25;;;14.90;63.60;;;;;;5088269;28;20023;-62
2023/10/10 00:56:56;;;;;;;19.75;5.50;;;14.90;64.00;;;;;;5098623;28;20027;-63
2023/10/10 00:59:35;;;;;;;19.98;5.20;;;14.90;63.90;;;;;;5099251;28;20036;-63
2023/10/10 01:02:05;;;;;;;17.23;5.45;;;14.80;64.10;;;;;;5078870;28;20481;-62
2023/10/10 01:04:35;;;;;;;15.52;5.07;;;14.80;63.90;;;;;;5070863;28;20047;-63
2023/10/10 01:07:07;;;;;;;17.60;5.05;;;14.80;64.00;;;;;;5088000;28;20416;-63
2023/10/10 01:09:39;;;;;;;15.80;5.43;;;14.80;64.30;;;;;;5087281;28;20027;-62
2023/10/10 01:12:04;;;;;;;14.40;4.80;;;14.70;64.00;;;;;;5088648;28;20024;-62
2023/10/10 01:14:31;;;;;;;13.93;5.30;;;14.70;64.00;;;;;;5086486;28;20020;-62
2023/10/10 01:17:00;;;;;;;16.73;5.40;;;14.70;64.10;;;;;;5095981;28;20225;-64
2023/10/10 01:19:28;;;;;;;14.20;5.72;;;14.70;64.20;;;;;;5086322;28;20036;-62
2023/10/10 01:22:04;;;;;;;18.08;6.10;;;14.70;64.20;;;;;;5071654;28;20111;-63
2023/10/10 01:24:33;;;;;;;21.20;5.97;;;14.60;64.50;;;;;;5076258;28;20138;-63
2023/10/10 01:27:13;;;;;;;16.20;5.88;;;14.60;64.10;;;;;;5085334;28;20026;-63
2023/10/10 01:29:49;;;;;;;22.27;5.35;;;14.60;64.20;;;;;;5087571;28;20024;-63
2023/10/10 01:32:17;;;;;;;14.35;5.38;;;14.50;64.10;;;;;;5083339;28;20036;-62
2023/10/10 01:34:45;;;;;;;22.42;5.68;;;14.50;64.10;;;;;;5090363;28;20046;-63
2023/10/10 01:37:14;;;;;;;18.83;5.65;;;14.40;64.10;;;;;;5071548;28;20031;-62
2023/10/10 01:39:54;;;;;;;14.85;5.28;;;14.40;64.10;;;;;;5085206;28;20474;-63
2023/10/10 01:42:36;;;;;;;15.70;5.55;;;14.40;64.30;;;;;;5084322;28;20027;-62
2023/10/10 01:45:07;;;;;;;15.30;6.13;;;14.40;64.30;;;;;;5088671;28;20044;-63
2023/10/10 01:47:34;;;;;;;16.42;5.35;;;14.40;64.10;;;;;;5089980;28;20024;-64
2023/10/10 01:50:10;;;;;;;16.10;4.95;;;14.30;64.20;;;;;;5089280;28;20020;-63
2023/10/10 01:52:46;;;;;;;12.80;4.97;;;14.30;64.30;;;;;;5090757;28;20047;-63
2023/10/10 01:55:12;;;;;;;16.42;5.00;;;14.30;64.20;;;;;;5086946;28;20328;-62
2023/10/10 01:57:38;;;;;;;20.67;5.15;;;14.30;64.20;;;;;;5092654;28;20488;-64
2023/10/10 02:00:26;;;;;;;10.85;4.93;;;14.20;64.30;;;;;;5088499;28;20074;-62
2023/10/10 02:02:50;;;;;;;13.43;4.95;;;14.20;64.40;;;;;;5089780;28;20101;-62
2023/10/10 02:05:32;;;;;;;20.73;5.57;;;14.20;64.30;;;;;;5088105;28;20028;-62
2023/10/10 02:07:59;;;;;;;13.15;5.05;;;14.20;64.40;;;;;;5088435;28;20025;-62
2023/10/10 02:10:30;;;;;;;17.58;5.07;;;14.10;64.30;;;;;;5078406;28;20482;-63
2023/10/10 02:12:59;;;;;;;19.77;5.57;;;14.10;64.40;;;;;;5081152;28;20074;-62
2023/10/10 02:15:32;;;;;;;17.15;4.97;;;14.10;64.50;;;;;;5087378;28;20067;-63
2023/10/10 02:18:04;;;;;;;11.85;4.82;;;14.00;64.50;;;;;;5085154;28;20040;-61
2023/10/10 02:20:49;;;;;;;17.23;5.20;;;14.00;65.20;;;;;;5088276;28;20043;-62
2023/10/10 02:23:30;;;;;;;12.98;5.22;;;14.00;64.60;;;;;;5087601;28;20049;-62
2023/10/10 02:26:02;;;;;;;14.10;5.20;;;14.00;64.50;;;;;;5084411;28;20135;-62
2023/10/10 02:31:14;;;;;;;16.27;4.90;;;13.90;64.50;;;;;;5091889;28;20042;-62
2023/10/10 02:33:48;;;;;;;20.60;4.95;;;13.90;64.50;;;;;;5086661;28;20036;-62
2023/10/10 02:36:15;;;;;;;16.13;5.35;;;13.90;64.60;;;;;;5090947;28;20024;-62
2023/10/10 02:38:53;;;;;;;11.85;4.38;;;13.80;64.50;;;;;;5088041;28;20024;-62
2023/10/10 02:46:34;;;;;;;16.45;5.03;;;13.80;64.80;;;;;;5087962;28;20142;-62
2023/10/10 02:49:23;;;;;;;16.67;5.00;;;13.80;65.00;;;;;;5101202;27;20077;-62
2023/10/10 02:51:51;;;;;;;13.38;5.15;;;13.70;65.40;;;;;;5097773;28;20440;-61
2023/10/10 02:56:56;;;;;;;21.80;4.85;;;13.70;65.10;;;;;;5096653;28;20031;-62
2023/10/10 02:59:31;;;;;;;13.70;4.72;;;13.70;65.20;;;;;;5088608;28;20027;-63
2023/10/10 03:01:59;;;;;;;15.93;5.10;;;13.60;65.20;;;;;;5071189;28;20028;-62
2023/10/10 03:07:10;;;;;;;18.52;5.40;;;13.60;65.20;;;;;;5088156;28;20476;-62
2023/10/10 03:10:06;;;;;;;12.90;5.03;;;13.60;65.20;;;;;;5070443;28;20050;-62
2023/10/10 03:12:29;;;;;;;12.63;5.05;;;13.50;65.20;;;;;;5091087;28;20031;-62
2023/10/10 03:15:00;;;;;;;15.70;4.85;;;13.50;65.20;;;;;;5097397;28;20032;-62
2023/10/10 03:17:31;;;;;;;16.77;4.82;;;13.50;65.30;;;;;;5094843;28;20032;-63
2023/10/10 03:20:13;;;;;;;16.60;5.53;;;13.50;65.30;;;;;;5084426;28;20477;-62
2023/10/10 03:25:28;;;;;;;15.00;4.97;;;13.50;65.30;;;;;;5089297;28;20492;-63
2023/10/10 03:28:05;;;;;;;17.10;4.75;;;13.40;65.20;;;;;;5101550;28;20529;-63
2023/10/10 03:30:49;;;;;;;12.38;4.40;;;13.40;65.20;;;;;;5095815;28;20470;-62
2023/10/10 03:33:16;;;;;;;;;;;13.40;65.20;;;;;;5084566;28;20020;-62
2023/10/10 03:36:06;;;;;;;13.30;4.07;;;13.40;65.40;;;;;;5090442;28;19919;-62
2023/10/10 05:25:32;;;;;;;12.30;3.40;;;12.40;66.30;;;;;;5084496;28;20058;-62
2023/10/10 05:27:59;;;;;;;11.85;5.10;;;12.40;66.40;;;;;;5090454;28;20474;-62
2023/10/10 05:30:25;;;;;;;11.25;4.57;;;12.30;66.40;;;;;;5087022;28;20025;-62
2023/10/10 05:33:05;;;;;;;13.02;5.43;;;12.30;66.70;;;;;;5087968;28;20347;-62
2023/10/10 05:35:33;;;;;;;10.77;4.40;;;12.30;66.90;;;;;;5082526;28;20051;-62
2023/10/10 05:38:00;;;;;;;15.50;4.60;;;12.20;66.70;;;;;;5089379;28;20482;-62
2023/10/10 05:40:26;;;;;;;12.30;5.38;;;12.20;66.70;;;;;;5088016;28;20016;-62
2023/10/10 05:42:52;;;;;;;18.55;5.72;;;12.20;66.70;;;;;;5087833;28;20024;-63
2023/10/10 05:45:18;;;;;;;13.57;5.65;;;12.20;66.80;;;;;;5084695;28;20024;-62
2023/10/10 05:47:44;;;;;;;13.45;5.20;;;12.20;66.90;;;;;;5085844;28;20024;-61
2023/10/10 05:50:10;;;;;;;19.35;5.50;;;12.20;66.90;;;;;;5087952;28;20403;-63
2023/10/10 05:52:39;;;;;;;11.90;5.78;;;12.20;67.00;;;;;;5095694;28;20024;-61
2023/10/10 05:55:06;;;;;;;15.85;5.82;;;12.20;67.00;;;;;;5092204;28;20027;-62
2023/10/10 05:57:36;;;;;;;16.83;6.60;;;12.20;67.00;;;;;;5094238;28;20023;-62
2023/10/10 06:00:07;;;;;;;19.83;7.03;;;12.20;67.00;;;;;;5088382;28;20051;-61
2023/10/10 06:02:33;;;;;;;15.02;6.82;;;12.20;67.00;;;;;;5088750;28;20039;-62
2023/10/10 06:04:58;;;;;;;18.08;6.63;;;12.20;67.20;;;;;;5083580;28;20040;-62
2023/10/10 06:07:24;;;;;;;16.25;6.75;;;12.20;67.20;;;;;;5089731;28;20024;-62
2023/10/10 06:09:51;;;;;;;17.85;6.63;;;12.20;67.20;;;;;;5086233;28;20028;-62
2023/10/10 06:12:19;;;;;;;19.33;6.63;;;12.30;67.30;;;;;;5094104;28;20020;-62
2023/10/10 06:14:46;;;;;;;17.35;6.72;;;12.30;67.30;;;;;;5090448;28;20047;-62
2023/10/10 06:17:12;;;;;;;15.27;6.30;;;12.30;67.30;;;;;;5089582;28;20028;-64
2023/10/10 06:19:38;;;;;;;22.40;6.57;;;12.40;67.50;;;;;;5089467;28;20348;-63
2023/10/10 06:22:08;;;;;;;19.00;7.07;;;12.50;67.70;;;;;;5091380;28;20028;-62
2023/10/10 06:24:34;;;;;;;14.38;6.45;;;12.50;67.80;;;;;;5091662;28;20395;-63
2023/10/10 06:27:00;;;;;;;24.27;6.68;;;12.60;67.80;;;;;;5093091;28;20020;-64
2023/10/10 06:29:29;;;;;;;19.98;5.78;;;12.70;67.90;;;;;;5086280;28;20046;-64
2023/10/10 06:31:58;;;;;;;13.90;5.43;;;12.80;68.10;;;;;;5067770;28;20024;-62
2023/10/10 06:34:25;;;;;;;18.23;5.78;;;12.80;68.00;;;;;;5089494;28;20028;-63
2023/10/10 06:36:52;;;;;;;15.07;5.60;;;12.90;68.10;;;;;;5085934;28;20028;-63
2023/10/10 06:39:18;;;;;;;19.90;5.70;;;13.00;68.20;;;;;;5090711;28;20031;-62
2023/10/10 06:41:54;;;;;;;14.35;5.43;;;13.10;68.40;;;;;;5086071;28;20024;-63
2023/10/10 06:44:32;;;;;;;17.75;6.80;;;13.10;68.40;;;;;;5097039;28;20028;-62
2023/10/10 06:46:59;;;;;;;20.42;5.80;;;13.20;68.40;;;;;;5087603;28;20027;-64
2023/10/10 06:49:25;;;;;;;16.08;6.22;;;13.30;68.50;;;;;;5086137;28;20074;-63
2023/10/10 06:51:55;;;;;;;24.50;5.53;;;13.40;68.60;;;;;;5092577;28;20029;-63
2023/10/10 06:54:27;;;;;;;11.13;5.88;;;13.50;68.60;;;;;;5086636;28;20089;-63
2023/10/10 06:59:26;;;;;;;18.20;5.70;;;13.70;68.60;;;;;;5087008;28;20056;-63
2023/10/10 07:01:53;;;;;;;16.38;5.60;;;13.80;68.60;;;;;;5080529;28;20033;-63
2023/10/10 07:04:19;;;;;;;17.27;5.47;;;14.00;68.80;;;;;;5076308;28;20031;-63
2023/10/10 07:06:47;;;;;;;15.80;5.50;;;14.10;68.60;;;;;;5087291;28;20030;-63
2023/10/10 07:09:29;;;;;;;22.45;6.75;;;14.20;68.60;;;;;;5088354;28;20095;-62
2023/10/10 07:11:56;;;;;;;12.82;5.70;;;14.30;68.50;;;;;;5086918;28;20024;-63
2023/10/10 07:14:25;;;;;;;14.73;5.90;;;14.50;68.30;;;;;;5091963;28;20028;-63
2023/10/10 07:16:56;;;;;;;18.40;6.18;;;14.60;68.20;;;;;;5082816;28;20027;-63
2023/10/10 07:19:29;;;;;;;15.55;5.38;;;14.70;68.10;;;;;;5091347;28;20067;-63
2023/10/10 07:21:56;;;;;;;16.02;5.72;;;14.80;68.10;;;;;;5081124;28;20124;-63
2023/10/10 07:24:28;;;;;;;19.05;5.93;;;14.90;68.00;;;;;;5089474;28;20082;-63
2023/10/10 07:27:30;;;;;;;20.88;6.32;;;15.10;67.90;;;;;;5085553;28;20089;-63
2023/10/10 07:32:18;;;;;;;18.98;5.78;;;15.40;67.40;;;;;;5082017;28;20445;-63
2023/10/10 07:34:54;;;;;;;15.60;6.05;;;15.50;67.20;;;;;;5086003;28;20460;-64
2023/10/10 07:37:23;;;;;;;21.27;6.35;;;15.60;67.10;;;;;;5091254;28;20915;-63
2023/10/10 07:39:55;;;;;;;15.30;5.95;;;15.70;66.90;;;;;;5097643;28;20039;-63
2023/10/10 07:42:34;;;;;;;22.58;5.93;;;15.90;66.60;;;;;;5090999;28;20048;-64
2023/10/10 07:45:13;;;;;;;21.10;5.65;;;16.00;66.40;;;;;;4980619;28;20926;-62
2023/10/10 07:50:46;;;;;;;17.25;6.47;;;16.20;66.00;;;;;;5090382;28;20043;-63
2023/10/10 07:53:12;;;;;;;19.95;6.47;;;16.40;66.00;;;;;;5089609;28;20038;-62
2023/10/10 07:58:25;;;;;;;21.60;6.43;;;16.60;65.70;;;;;;5083036;28;20028;-63
2023/10/10 08:01:09;;;;;;;18.67;6.10;;;16.80;65.50;;;;;;5081127;28;20138;-63
2023/10/10 08:03:35;;;;;;;;;;;16.90;65.40;;;;;;5091827;28;20386;-64
2023/10/10 08:06:01;;;;;;;22.25;5.95;;;17.00;65.20;;;;;;5088231;28;19980;-62
2023/10/10 08:08:27;;;;;;;24.17;6.97;;;17.20;64.90;;;;;;5091792;28;20089;-62
2023/10/10 08:10:52;;;;;;;28.70;6.75;;;17.30;64.80;;;;;;5083829;28;20051;-62
2023/10/10 08:13:20;;;;;;;21.85;6.43;;;17.40;64.60;;;;;;5070381;28;20028;-64
2023/10/10 08:15:56;;;;;;;16.95;6.25;;;17.60;64.60;;;;;;5088944;28;20035;-63
2023/10/10 08:21:17;;;;;;;20.90;5.75;;;17.90;64.10;;;;;;5082970;28;20024;-62
2023/10/10 08:23:46;;;;;;;12.50;5.55;;;18.10;63.90;;;;;;5083343;28;20115;-63
2023/10/10 08:26:18;;;;;;;21.67;6.05;;;18.20;63.60;;;;;;5089026;28;20035;-63
2023/10/10 08:28:48;;;;;;;18.08;5.85;;;18.30;63.00;;;;;;5086968;28;20035;-63
2023/10/10 08:31:14;;;;;;;15.02;6.07;;;18.50;62.60;;;;;;5103134;27;20440;-64
2023/10/10 08:33:44;;;;;;;21.45;6.55;;;18.60;62.40;;;;;;5081927;28;20024;-64
2023/10/10 08:36:12;;;;;;;15.52;6.00;;;18.70;62.20;;;;;;5089668;28;20032;-63
2023/10/10 08:38:42;;;;;;;18.65;5.95;;;18.80;61.90;;;;;;5085562;28;20078;-63
2023/10/10 08:41:08;;;;;;;20.13;6.15;;;18.90;61.50;;;;;;5090196;28;20167;-63
2023/10/10 08:43:38;;;;;;;17.23;6.35;;;19.10;61.40;;;;;;5088228;28;20122;-64
2023/10/10 08:46:08;;;;;;;23.33;6.70;;;19.20;61.00;;;;;;5029233;28;20059;-62
2023/10/10 08:48:37;;;;;;;14.50;6.03;;;19.30;60.70;;;;;;5094952;28;20058;-63
2023/10/10 08:51:04;;;;;;;16.27;5.43;;;19.40;60.70;;;;;;5087740;28;20143;-63
2023/10/10 08:53:36;;;;;;;17.50;5.40;;;19.50;60.60;;;;;;5087805;28;20539;-63
2023/10/10 08:56:03;;;;;;;19.15;5.35;;;19.70;60.40;;;;;;5084630;28;20035;-63
2023/10/10 08:58:31;;;;;;;17.50;5.55;;;19.90;60.30;;;;;;5090852;28;20028;-63
2023/10/10 09:00:59;;;;;;;19.77;5.40;;;20.00;59.90;;;;;;5085001;28;20488;-63
2023/10/10 09:03:26;;;;;;;19.10;5.53;;;20.20;59.50;;;;;;5086508;28;20493;-63
2023/10/10 09:05:52;;;;;;;17.42;5.80;;;20.40;59.50;;;;;;5085557;28;20047;-64
2023/10/10 09:08:26;;;;;;;13.27;5.15;;;20.60;59.00;;;;;;5082638;28;20024;-63
2023/10/10 09:10:57;;;;;;;15.18;5.43;;;20.70;58.50;;;;;;5084834;28;20035;-64
2023/10/10 09:13:25;;;;;;;18.55;5.53;;;20.90;58.10;;;;;;5075754;28;20028;-62
2023/10/10 09:15:55;;;;;;;20.38;5.35;;;21.10;58.30;;;;;;5088519;28;20031;-63
2023/10/10 09:18:22;;;;;;;18.60;4.97;;;21.30;57.20;;;;;;5089596;28;20063;-63
2023/10/10 09:20:49;;;;;;;20.13;6.10;;;21.50;57.30;;;;;;5087000;28;20389;-63
2023/10/10 09:23:32;;;;;;;16.15;5.75;;;21.70;57.00;;;;;;5087652;28;20032;-62
2023/10/10 09:28:58;;;;;;;11.57;5.10;;;22.10;55.00;;;;;;5089508;28;20058;-62
2023/10/10 09:31:26;;;;;;;;;;;22.20;55.70;;;;;;5081506;28;20024;-63
2023/10/10 09:33:54;;;;;;;12.05;5.35;;;22.30;55.60;;;;;;5090620;28;19912;-64
2023/10/10 09:36:26;;;;;;;15.25;5.47;;;22.50;55.20;;;;;;5082640;28;20039;-63
2023/10/10 09:39:09;;;;;;;20.88;5.32;;;22.60;54.80;;;;;;5070103;28;20102;-64
2023/10/10 09:49:43;;;;;;;18.40;5.63;;;23.20;53.90;;;;;;5083329;28;20040;-64
2023/10/10 09:58:00;;;;;;;12.98;4.53;;;23.50;52.90;;;;;;5087973;28;20054;-63
2023/10/10 10:00:45;;;;;;;14.73;5.10;;;23.60;52.40;;;;;;5088637;28;20276;-62
2023/10/10 10:06:34;;;;;;;19.65;5.45;;;23.90;51.60;;;;;;5086578;28;20443;-63
2023/10/10 10:09:37;;;;;;;24.65;5.50;;;24.10;51.30;;;;;;5078154;28;20029;-63
2023/10/10 10:12:29;;;;;;;14.63;5.53;;;24.30;51.10;;;;;;5084022;28;20076;-63
2023/10/10 10:15:20;;;;;;;14.00;5.07;;;24.50;51.50;;;;;;5071286;28;20432;-63
2023/10/10 10:18:19;;;;;;;13.13;5.45;;;24.70;50.40;;;;;;5067151;28;20562;-62
2023/10/10 10:20:47;;;;;;;14.95;5.43;;;24.80;49.80;;;;;;5090233;28;20122;-63
2023/10/10 10:23:27;;;;;;;15.93;6.15;;;24.90;51.30;;;;;;5078197;28;20078;-63
2023/10/10 10:26:10;;;;;;;16.58;5.53;;;25.00;49.70;;;;;;5079850;27;20177;-63
2023/10/10 10:28:38;;;;;;;15.13;5.20;;;25.10;49.40;;;;;;5074951;28;20115;-63
2023/10/10 10:31:08;;;;;;;16.85;5.10;;;25.20;49.70;;;;;;5079338;28;20028;-63
2023/10/10 10:33:45;;;;;;;17.00;5.57;;;25.30;49.20;;;;;;5075968;28;20102;-65
2023/10/10 10:36:16;;;;;;;16.38;6.07;;;25.40;48.80;;;;;;5083657;28;20103;-63
2023/10/10 10:39:20;;;;;;;17.63;5.60;;;25.40;48.80;;;;;;5089386;28;20042;-63
2023/10/10 10:41:41;;;;;;;25.13;5.78;;;25.60;48.80;;;;;;5091772;28;20043;-63
2023/10/10 10:44:09;;;;;;;13.40;4.35;;;25.70;48.50;;;;;;5073172;28;20024;-63
2023/10/10 10:46:40;;;;;;;17.58;6.57;;;25.80;48.00;;;;;;5087508;28;20035;-62
2023/10/10 10:49:12;;;;;;;17.13;5.97;;;25.80;47.20;;;;;;5093381;28;20039;-63
2023/10/10 10:51:44;;;;;;;16.52;4.88;;;26.00;46.70;;;;;;5091661;28;20089;-63
2023/10/10 10:57:01;;;;;;;12.82;5.40;;;26.10;47.20;;;;;;5090386;28;20058;-63
2023/10/10 10:59:35;;;;;;;16.60;5.20;;;26.10;47.50;;;;;;5086495;28;20032;-63
2023/10/10 11:02:12;;;;;;;23.63;5.15;;;26.20;47.60;;;;;;5086536;28;20039;-64
2023/10/10 11:07:07;;;;;;;18.88;4.70;;;26.30;47.30;;;;;;5088588;28;20392;-63
2023/10/10 11:09:34;;;;;;;18.83;5.82;;;26.40;46.60;;;;;;5094616;28;20020;-63
2023/10/10 11:12:05;;;;;;;22.90;6.35;;;26.40;46.90;;;;;;5097153;28;20513;-63
2023/10/10 11:14:32;;;;;;;15.82;5.15;;;26.50;46.60;;;;;;5091268;28;20032;-64
2023/10/10 11:16:58;;;;;;;18.67;5.47;;;26.60;46.10;;;;;;5089279;28;20043;-64
2023/10/10 11:21:59;;;;;;;12.32;5.35;;;26.80;44.20;;;;;;5085313;28;20060;-64
2023/10/10 11:24:29;;;;;;;13.27;5.18;;;26.80;44.70;;;;;;5090296;28;20566;-63
2023/10/10 11:29:45;;;;;;;12.88;5.47;;;26.90;42.50;;;;;;5088128;28;20257;-63
2023/10/10 11:32:24;;;;;;;10.48;5.63;;;26.90;41.10;;;;;;5092799;28;20540;-63
2023/10/10 11:34:57;;;;;;;13.55;6.15;;;26.90;40.90;;;;;;5088293;28;20040;-63
2023/10/10 11:37:26;;;;;;;10.48;5.60;;;27.00;39.70;;;;;;5091436;28;20020;-62
2023/10/10 11:40:52;;;;;;;10.25;5.70;;;27.00;38.40;;;;;;5087446;28;20020;-63
2023/10/10 11:43:11;;;;;;;;;;;26.90;37.30;;;;;;5086686;28;20473;-62
2023/10/10 11:45:39;;;;;;;8.27;4.90;;;27.00;41.60;;;;;;5008933;28;19920;-60
2023/10/10 11:48:12;;;;;;;13.48;5.90;;;27.10;38.80;;;;;;5089938;28;20031;-65
2023/10/10 11:50:48;;;;;;;12.30;6.15;;;27.10;38.60;;;;;;5088169;28;20023;-63
2023/10/10 11:53:19;;;;;;;17.10;6.07;;;27.20;35.90;;;;;;5092570;28;20343;-64
2023/10/10 11:55:46;;;;;;;15.27;6.50;;;27.30;37.30;;;;;;5088037;28;20036;-63
2023/10/10 11:58:17;;;;;;;14.80;6.25;;;27.40;37.20;;;;;;5081839;28;20040;-62
2023/10/10 12:01:03;;;;;;;12.18;6.28;;;27.50;38.30;;;;;;5076982;28;21208;-62
2023/10/10 12:03:48;;;;;;;9.73;5.82;;;27.50;36.70;;;;;;5090566;28;21275;-63
2023/10/10 12:06:14;;;;;;;13.43;6.22;;;27.60;35.40;;;;;;5088986;28;20032;-63
2023/10/10 12:08:45;;;;;;;14.00;5.78;;;27.70;35.50;;;;;;5085479;28;20032;-63
2023/10/10 12:11:20;;;;;;;10.80;5.68;;;27.70;35.70;;;;;;5086735;28;20031;-63
2023/10/10 12:13:50;;;;;;;18.48;6.00;;;27.80;35.20;;;;;;5086301;28;20856;-64
2023/10/10 12:16:17;;;;;;;14.30;5.88;;;27.80;34.30;;;;;;5091901;28;20395;-64
2023/10/10 12:18:46;;;;;;;10.70;5.60;;;27.90;33.40;;;;;;5086312;28;20111;-63
2023/10/10 12:21:20;;;;;;;12.70;5.88;;;27.90;34.00;;;;;;5085549;28;20028;-64
2023/10/10 12:23:52;;;;;;;11.75;5.47;;;27.90;33.80;;;;;;5085412;28;20436;-62
2023/10/10 12:26:18;;;;;;;21.33;6.20;;;28.00;32.80;;;;;;5080386;28;20038;-64
2023/10/10 12:28:47;;;;;;;10.70;5.40;;;28.10;32.90;;;;;;5082137;28;20028;-63
2023/10/10 12:31:16;;;;;;;10.23;5.82;;;28.10;33.60;;;;;;5089596;28;20015;-64
2023/10/10 12:33:47;;;;;;;13.25;5.30;;;28.20;33.80;;;;;;5088207;28;20027;-64
2023/10/10 12:36:14;;;;;;;22.10;5.93;;;28.20;33.70;;;;;;5086422;28;20024;-61
2023/10/10 12:38:40;;;;;;;10.15;5.72;;;28.30;34.10;;;;;;5095391;28;20625;-64
2023/10/10 12:41:06;;;;;;;12.40;6.75;;;28.30;33.50;;;;;;5089755;28;20035;-63
2023/10/10 12:43:32;;;;;;;10.55;5.90;;;28.30;33.10;;;;;;5085186;28;20033;-63
2023/10/10 12:46:01;;;;;;;16.10;6.20;;;28.40;32.40;;;;;;4972899;28;20331;-65
2023/10/10 12:48:28;;;;;;;12.18;6.32;;;28.50;31.70;;;;;;5087395;28;20808;-63
2023/10/10 12:50:54;;;;;;;11.48;6.20;;;28.60;31.30;;;;;;5087320;28;20035;-63
2023/10/10 12:53:20;;;;;;;13.35;6.20;;;28.60;31.00;;;;;;5079110;28;20531;-62
2023/10/10 12:56:01;;;;;;;10.45;6.28;;;28.70;30.40;;;;;;5086948;28;20045;-64
2023/10/10 12:58:28;;;;;;;13.40;5.90;;;28.60;29.80;;;;;;5082692;28;20032;-61
2023/10/10 13:00:54;;;;;;;15.20;6.35;;;28.70;30.40;;;;;;5081266;28;20026;-63
2023/10/10 13:03:27;;;;;;;13.40;5.93;;;28.70;30.50;;;;;;5087419;28;20043;-63
2023/10/10 13:06:06;;;;;;;11.95;5.75;;;28.70;30.70;;;;;;5086880;28;20052;-63
2023/10/10 13:08:41;;;;;;;11.13;5.45;;;28.80;33.20;;;;;;5089901;28;20039;-64
2023/10/10 13:11:17;;;;;;;15.07;6.10;;;28.90;32.70;;;;;;5092508;28;20142;-63
2023/10/10 13:13:48;;;;;;;11.75;5.90;;;29.00;33.20;;;;;;5087458;28;20493;-62
2023/10/10 13:16:25;;;;;;;12.13;5.65;;;29.10;31.80;;;;;;5072542;28;20035;-62
2023/10/10 13:18:57;;;;;;;11.45;6.18;;;29.30;31.40;;;;;;5086422;28;20213;-63
2023/10/10 13:21:24;;;;;;;13.77;6.25;;;29.40;29.90;;;;;;5096248;28;20034;-61
2023/10/10 13:23:51;;;;;;;15.82;6.15;;;29.50;30.80;;;;;;5085265;28;20131;-62
2023/10/10 13:26:21;;;;;;;17.77;5.97;;;29.60;31.90;;;;;;5088312;28;20047;-63
2023/10/10 13:28:48;;;;;;;14.73;6.32;;;29.70;32.20;;;;;;5080823;28;20574;-62
2023/10/10 13:31:18;;;;;;;11.13;5.63;;;29.70;32.10;;;;;;5085564;28;20040;-62
2023/10/10 13:33:44;;;;;;;13.43;5.80;;;29.70;31.80;;;;;;5089638;28;21148;-63
2023/10/10 13:36:17;;;;;;;12.25;5.68;;;29.70;32.10;;;;;;5085185;28;20024;-62
2023/10/10 13:38:50;;;;;;;14.47;6.10;;;29.80;31.70;;;;;;5087441;28;20112;-62
2023/10/10 13:41:18;;;;;;;11.20;6.18;;;29.80;32.70;;;;;;5087831;28;20020;-63
2023/10/10 13:43:48;;;;;;;14.82;5.78;;;29.90;32.40;;;;;;5088965;28;20066;-63
2023/10/10 13:46:15;;;;;;;15.95;5.47;;;29.90;32.20;;;;;;4984581;28;20213;-63
2023/10/10 13:48:41;;;;;;;16.13;6.47;;;30.00;31.90;;;;;;5083904;28;20029;-62
2023/10/10 13:51:08;;;;;;;10.43;5.47;;;30.10;31.30;;;;;;5085007;28;20031;-62
2023/10/10 13:53:35;;;;;;;14.82;7.18;;;30.10;30.80;;;;;;5085461;28;20094;-63
2023/10/10 13:56:03;;;;;;;21.20;6.57;;;30.10;30.40;;;;;;5088570;28;20024;-64
2023/10/10 13:58:29;;;;;;;12.40;6.32;;;30.10;29.90;;;;;;5098615;28;20027;-63
2023/10/10 14:01:03;;;;;;;16.08;6.18;;;30.10;30.10;;;;;;5090900;28;20097;-62
2023/10/10 14:03:29;;;;;;;13.35;6.50;;;30.10;29.60;;;;;;5083010;28;20025;-62
2023/10/10 14:06:10;;;;;;;17.85;7.07;;;30.10;30.00;;;;;;5088703;28;20101;-63
2023/10/10 14:08:36;;;;;;;11.02;5.50;;;30.10;30.00;;;;;;5090056;28;20039;-63
2023/10/10 14:11:02;;;;;;;17.52;5.75;;;30.10;29.80;;;;;;5089047;28;20096;-63
2023/10/10 14:13:32;;;;;;;15.57;6.50;;;30.10;30.00;;;;;;5084897;28;20111;-63
2023/10/10 14:15:58;;;;;;;17.52;6.85;;;30.00;29.70;;;;;;5087427;28;20382;-64
2023/10/10 14:18:28;;;;;;;16.08;6.63;;;30.00;30.00;;;;;;5092502;28;20031;-64
2023/10/10 14:20:55;;;;;;;15.10;6.38;;;29.90;30.20;;;;;;5088373;28;20063;-63
2023/10/10 14:23:24;;;;;;;14.73;6.70;;;29.90;29.80;;;;;;5082323;28;20151;-63
2023/10/10 14:25:50;;;;;;;19.08;6.32;;;29.90;29.60;;;;;;5087870;28;20142;-63
2023/10/10 14:28:18;;;;;;;15.50;6.35;;;29.80;29.20;;;;;;5090460;28;20061;-63
2023/10/10 14:30:44;;;;;;;14.80;6.25;;;29.80;30.70;;;;;;5088599;28;20094;-63
2023/10/10 14:33:10;;;;;;;23.85;5.55;;;29.80;32.10;;;;;;5093357;28;20024;-62
2023/10/10 14:35:36;;;;;;;17.55;4.78;;;29.80;32.60;;;;;;5095767;28;20149;-63
2023/10/10 14:38:02;;;;;;;20.20;5.07;;;29.80;33.20;;;;;;5092069;28;20035;-62
2023/10/10 14:40:28;;;;;;;15.05;4.55;;;29.80;33.60;;;;;;5089824;28;20028;-64
2023/10/10 14:42:54;;;;;;;12.10;4.10;;;29.80;33.90;;;;;;5091013;28;20020;-62
2023/10/10 14:45:28;;;;;;;18.77;5.30;;;29.80;34.20;;;;;;5040898;28;20137;-59
2023/10/10 14:47:55;;;;;;;15.45;4.55;;;29.80;34.40;;;;;;5089793;28;20106;-63
2023/10/10 14:50:24;;;;;;;24.00;5.10;;;29.70;34.60;;;;;;5084959;28;20029;-63
2023/10/10 14:52:53;;;;;;;16.60;5.38;;;29.70;34.60;;;;;;5086302;28;20389;-63
2023/10/10 14:55:27;;;;;;;20.00;5.55;;;29.60;34.30;;;;;;5092357;28;20118;-63
2023/10/10 14:57:56;;;;;;;;;;;29.50;34.50;;;;;;5094778;28;20032;-63
2023/10/10 15:00:27;;;;;;;9.80;4.18;;;29.40;35.10;;;;;;5091504;28;19999;-64
2023/10/10 15:02:54;;;;;;;20.35;4.53;;;29.20;35.10;;;;;;5093009;28;20051;-63
2023/10/10 15:05:26;;;;;;;43.30;5.15;;;29.10;35.20;;;;;;5096994;28;20038;-63
2023/10/10 15:07:55;;;;;;;20.05;5.22;;;28.90;35.70;;;;;;5098642;28;20056;-63
2023/10/10 15:10:25;;;;;;;17.17;4.90;;;28.80;36.30;;;;;;5093457;28;20024;-64
2023/10/10 15:12:52;;;;;;;18.60;5.15;;;28.60;36.70;;;;;;5083711;28;20123;-62
2023/10/10 15:15:18;;;;;;;18.35;4.88;;;28.50;36.90;;;;;;5096583;28;20039;-62
2023/10/10 15:17:44;;;;;;;13.52;4.25;;;28.40;37.20;;;;;;5091769;28;20393;-64
2023/10/10 15:20:12;;;;;;;11.55;4.03;;;28.30;37.60;;;;;;5086079;28;20047;-61
2023/10/10 15:22:44;;;;;;;32.63;4.63;;;28.20;37.70;;;;;;5085536;28;20439;-62
2023/10/10 15:25:10;;;;;;;17.15;4.82;;;28.20;38.20;;;;;;5091441;28;20052;-61
2023/10/10 15:27:40;;;;;;;17.33;4.95;;;28.10;38.40;;;;;;5096560;28;20022;-62
2023/10/10 15:30:10;;;;;;;21.20;5.53;;;28.10;38.60;;;;;;5087264;28;20040;-63
2023/10/10 15:32:47;;;;;;;16.65;4.78;;;28.00;38.50;;;;;;5093032;28;20036;-63
2023/10/10 15:35:16;;;;;;;18.33;4.93;;;28.10;38.70;;;;;;5089627;28;20043;-63
2023/10/10 15:37:42;;;;;;;15.18;5.28;;;28.00;38.60;;;;;;5095323;28;20030;-63
2023/10/10 15:40:13;;;;;;;15.57;5.18;;;28.00;38.70;;;;;;5093844;28;20549;-61
2023/10/10 15:42:40;;;;;;;12.43;4.53;;;27.90;38.80;;;;;;5094945;28;20682;-63
2023/10/10 15:45:05;;;;;;;23.70;4.68;;;27.70;39.00;;;;;;5088976;28;20043;-63
2023/10/10 15:47:31;;;;;;;18.23;5.10;;;27.60;39.40;;;;;;4984372;28;20035;-62